Time;durP1;ratioP1;P1;durP2;ratioP2;P2;SDS_P1;SDS_P2;PMS_P1;PMS_P2;Temp;Humidity;BMP_temperature;BMP_pressure;BME280_temperature;BME280_humidity;BME280_pressure;Samples;Min_cycle;Max_cycle;Signal;HPM_P1;HPM_P2
2022/01/31 00:00:11;;;;;;;15.27;7.97;;;1.80;99.90;;;;;;5077260;28;20199;-68
2022/01/31 00:02:37;;;;;;;12.38;7.72;;;1.90;99.90;;;;;;5077094;28;20204;-68
2022/01/31 00:05:05;;;;;;;19.83;8.32;;;1.80;99.90;;;;;;5077166;28;20199;-69
2022/01/31 00:07:31;;;;;;;15.93;8.00;;;1.80;99.90;;;;;;5077067;28;20234;-68
2022/01/31 00:09:57;;;;;;;21.83;8.18;;;1.80;99.90;;;;;;5076900;28;20278;-69
2022/01/31 00:12:29;;;;;;;22.63;8.70;;;1.80;99.90;;;;;;5077443;28;20265;-68
2022/01/31 00:15:01;;;;;;;14.85;7.57;;;1.80;99.90;;;;;;5076704;28;20671;-68
2022/01/31 00:17:27;;;;;;;17.17;8.30;;;1.80;99.90;;;;;;5076583;28;20215;-69
2022/01/31 00:19:54;;;;;;;13.50;7.40;;;1.80;99.90;;;;;;5076991;28;20203;-69
2022/01/31 00:22:20;;;;;;;15.88;7.28;;;1.90;99.90;;;;;;5076490;28;20234;-69
2022/01/31 00:24:47;;;;;;;24.23;11.50;;;1.90;99.90;;;;;;5076616;28;20598;-69
2022/01/31 00:27:13;;;;;;;23.45;9.88;;;1.90;99.90;;;;;;5076610;28;20207;-68
2022/01/31 00:29:39;;;;;;;25.17;10.57;;;2.10;99.90;;;;;;5076738;28;20204;-69
2022/01/31 00:32:06;;;;;;;21.80;9.60;;;2.10;99.90;;;;;;5076538;28;20210;-69
2022/01/31 00:34:33;;;;;;;15.85;7.85;;;2.20;99.90;;;;;;5076462;28;20203;-68
2022/01/31 00:37:00;;;;;;;11.90;7.13;;;2.20;99.90;;;;;;5076185;28;20220;-70
2022/01/31 00:39:26;;;;;;;15.52;8.25;;;2.20;99.90;;;;;;5076369;28;20199;-68
2022/01/31 00:41:52;;;;;;;17.77;8.00;;;2.30;99.90;;;;;;5076499;28;20200;-69
2022/01/31 00:44:38;;;;;;;13.13;7.80;;;2.30;99.90;;;;;;5076334;28;20257;-68
2022/01/31 00:47:15;;;;;;;22.83;7.55;;;2.30;99.90;;;;;;5076052;28;20234;-68
2022/01/31 00:49:49;;;;;;;14.75;6.88;;;2.30;99.90;;;;;;5076116;28;20690;-69
2022/01/31 00:52:16;;;;;;;18.35;7.03;;;2.30;99.90;;;;;;5076167;28;20224;-69
2022/01/31 00:54:42;;;;;;;13.77;5.93;;;2.30;99.90;;;;;;5076407;28;20185;-71
2022/01/31 00:57:09;;;;;;;14.63;5.75;;;2.40;99.90;;;;;;5075942;28;20224;-69
2022/01/31 00:59:35;;;;;;;18.42;5.72;;;2.40;99.90;;;;;;5074518;28;20195;-69
2022/01/31 01:02:02;;;;;;;15.52;6.15;;;2.50;99.90;;;;;;5076049;28;20200;-69
2022/01/31 01:04:29;;;;;;;16.23;6.20;;;2.50;99.90;;;;;;5075661;28;20581;-69
2022/01/31 01:06:56;;;;;;;8.93;5.95;;;2.60;99.90;;;;;;5075520;28;20223;-69
2022/01/31 01:09:23;;;;;;;17.63;6.38;;;2.60;99.90;;;;;;5075608;28;20623;-69
2022/01/31 01:11:49;;;;;;;12.55;5.60;;;2.60;99.90;;;;;;5075702;28;20690;-69
2022/01/31 01:14:15;;;;;;;14.57;5.50;;;2.60;99.90;;;;;;5076068;28;20196;-69
2022/01/31 01:16:42;;;;;;;11.48;5.60;;;2.60;99.90;;;;;;5075615;28;20216;-69
2022/01/31 01:19:08;;;;;;;18.23;6.93;;;2.60;99.90;;;;;;5075620;28;20200;-69
2022/01/31 01:21:35;;;;;;;18.77;5.10;;;2.70;99.90;;;;;;5075725;28;20725;-69
2022/01/31 01:24:01;;;;;;;12.60;5.57;;;2.70;99.90;;;;;;5075573;28;20200;-69
2022/01/31 01:26:27;;;;;;;14.20;6.18;;;2.70;99.90;;;;;;5075677;28;20249;-68
2022/01/31 01:28:54;;;;;;;13.35;5.82;;;2.70;99.90;;;;;;5075989;28;20572;-68
2022/01/31 01:31:20;;;;;;;15.15;5.60;;;2.70;99.90;;;;;;5076205;28;20218;-68
2022/01/31 01:33:47;;;;;;;13.45;5.65;;;2.80;99.90;;;;;;5076340;28;20248;-68
2022/01/31 01:36:13;;;;;;;15.32;5.18;;;2.80;99.90;;;;;;5075731;28;20224;-68
2022/01/31 01:38:40;;;;;;;14.98;5.65;;;2.80;99.90;;;;;;5075652;28;20256;-68
2022/01/31 01:41:06;;;;;;;18.88;7.10;;;2.80;99.90;;;;;;5075755;28;20203;-68
2022/01/31 01:43:33;;;;;;;15.48;5.70;;;2.80;99.90;;;;;;5074065;28;20672;-69
2022/01/31 01:46:00;;;;;;;16.02;5.95;;;2.80;99.90;;;;;;5075262;28;20200;-68
2022/01/31 01:48:27;;;;;;;11.82;5.05;;;2.90;99.90;;;;;;5075330;28;20572;-69
2022/01/31 01:50:55;;;;;;;12.98;4.78;;;2.90;99.90;;;;;;5075306;28;20667;-69
2022/01/31 01:53:23;;;;;;;10.80;4.93;;;2.90;99.90;;;;;;5075063;28;20235;-68
2022/01/31 01:55:52;;;;;;;13.90;7.32;;;2.90;99.90;;;;;;5075490;28;20203;-69
2022/01/31 01:58:20;;;;;;;10.68;5.97;;;3.00;99.90;;;;;;5074744;28;20268;-69
2022/01/31 02:00:58;;;;;;;12.30;6.05;;;3.00;99.90;;;;;;5075658;28;20200;-69
2022/01/31 02:03:27;;;;;;;13.40;6.50;;;3.10;99.90;;;;;;5075563;28;20184;-71
2022/01/31 02:05:55;;;;;;;20.13;6.20;;;3.10;99.90;;;;;;5074538;28;20224;-69
2022/01/31 02:08:23;;;;;;;15.27;5.80;;;3.10;99.90;;;;;;5075822;28;20260;-70
2022/01/31 02:10:50;;;;;;;14.85;4.53;;;3.10;99.90;;;;;;5075960;28;20776;-70
2022/01/31 02:13:17;;;;;;;20.20;6.28;;;3.10;99.90;;;;;;5075882;28;20253;-70
2022/01/31 02:15:46;;;;;;;15.10;5.85;;;3.10;99.90;;;;;;5075226;28;20204;-70
2022/01/31 02:18:13;;;;;;;17.45;6.20;;;3.10;99.90;;;;;;5075159;28;20265;-70
2022/01/31 02:20:41;;;;;;;12.23;5.43;;;3.10;99.90;;;;;;5075115;28;20191;-70
2022/01/31 02:23:10;;;;;;;12.30;5.38;;;3.10;99.90;;;;;;5074937;28;20200;-70
2022/01/31 02:26:03;;;;;;;15.02;5.40;;;3.10;99.90;;;;;;5074743;28;20258;-70
2022/01/31 02:28:32;;;;;;;14.02;5.88;;;3.10;99.90;;;;;;5075047;28;20207;-70
2022/01/31 02:30:59;;;;;;;15.45;5.90;;;3.10;99.90;;;;;;5074697;28;20211;-70
2022/01/31 02:33:27;;;;;;;14.32;6.20;;;3.10;99.90;;;;;;5074984;28;20265;-70
2022/01/31 02:35:59;;;;;;;12.60;6.07;;;3.10;99.90;;;;;;5074673;28;20260;-70
2022/01/31 02:38:27;;;;;;;15.68;6.45;;;3.10;99.90;;;;;;5074485;28;20709;-70
2022/01/31 02:40:54;;;;;;;17.38;6.63;;;3.00;99.90;;;;;;5074639;28;20196;-70
2022/01/31 02:43:32;;;;;;;11.00;6.30;;;3.00;99.90;;;;;;5074708;28;20620;-70
2022/01/31 02:45:59;;;;;;;11.88;6.90;;;2.90;99.90;;;;;;5074634;28;20234;-70
2022/01/31 02:48:28;;;;;;;19.15;7.90;;;2.90;99.90;;;;;;5074419;28;20241;-70
2022/01/31 02:50:55;;;;;;;13.85;7.25;;;2.80;99.90;;;;;;5073899;28;20397;-70
2022/01/31 02:55:53;;;;;;;15.23;7.47;;;2.80;99.90;;;;;;5074254;28;20207;-70
2022/01/31 02:58:21;;;;;;;10.05;8.20;;;2.70;99.90;;;;;;5074417;28;20329;-70
2022/01/31 03:00:48;;;;;;;15.82;8.77;;;2.70;99.90;;;;;;5073220;28;20604;-70
2022/01/31 03:03:14;;;;;;;19.75;8.10;;;2.60;99.90;;;;;;5074026;28;20196;-70
2022/01/31 03:05:41;;;;;;;12.02;7.38;;;2.60;99.90;;;;;;5074366;28;20260;-70
2022/01/31 03:08:07;;;;;;;15.65;8.00;;;2.60;99.90;;;;;;5073772;28;20199;-70
2022/01/31 03:10:34;;;;;;;15.38;7.20;;;2.60;99.90;;;;;;5074036;28;20744;-70
2022/01/31 03:13:01;;;;;;;18.58;9.07;;;2.60;99.90;;;;;;5074073;28;20208;-70
2022/01/31 03:15:28;;;;;;;13.80;7.90;;;2.60;99.90;;;;;;5073678;28;20667;-70
2022/01/31 03:17:54;;;;;;;12.18;6.70;;;2.60;99.90;;;;;;5074302;28;20216;-70
2022/01/31 03:20:23;;;;;;;15.40;7.03;;;2.60;99.90;;;;;;5074172;28;20610;-70
2022/01/31 03:22:50;;;;;;;12.32;6.80;;;2.60;99.90;;;;;;5074151;28;20204;-70
2022/01/31 03:25:18;;;;;;;11.05;6.45;;;2.60;99.90;;;;;;5073850;28;20626;-70
2022/01/31 03:27:46;;;;;;;15.48;7.50;;;2.70;99.90;;;;;;5074011;28;20204;-70
2022/01/31 03:30:16;;;;;;;13.30;7.00;;;2.70;99.90;;;;;;5073764;28;20222;-70
2022/01/31 03:32:43;;;;;;;16.38;7.25;;;2.70;99.90;;;;;;5074241;28;20208;-70
2022/01/31 03:35:10;;;;;;;16.98;7.28;;;2.70;99.90;;;;;;5073961;28;20203;-71
2022/01/31 03:37:37;;;;;;;11.77;7.25;;;2.80;99.90;;;;;;5073729;28;20219;-70
2022/01/31 03:40:05;;;;;;;15.82;7.25;;;2.80;99.90;;;;;;5073715;28;20214;-70
2022/01/31 03:42:32;;;;;;;17.85;8.07;;;2.90;99.90;;;;;;5073913;28;20204;-70
2022/01/31 03:44:58;;;;;;;13.32;7.50;;;2.90;99.90;;;;;;5074576;28;20244;-70
2022/01/31 03:47:25;;;;;;;18.30;7.65;;;2.90;99.90;;;;;;5073985;28;20625;-69
2022/01/31 03:49:51;;;;;;;16.50;6.88;;;3.00;99.90;;;;;;5073833;28;20208;-69
2022/01/31 03:52:18;;;;;;;13.25;5.93;;;3.00;99.90;;;;;;5073950;28;20238;-70
2022/01/31 03:54:44;;;;;;;14.50;7.35;;;3.00;99.90;;;;;;5072139;28;20237;-69
2022/01/31 03:57:11;;;;;;;19.73;7.70;;;3.00;99.90;;;;;;5073730;28;20246;-69
2022/01/31 03:59:37;;;;;;;10.43;6.72;;;3.10;99.90;;;;;;5073965;28;20595;-70
2022/01/31 04:02:06;;;;;;;13.13;7.03;;;3.10;99.90;;;;;;5073718;28;20196;-69
2022/01/31 04:04:34;;;;;;;21.23;8.00;;;3.20;99.90;;;;;;5074029;28;20200;-69
2022/01/31 04:07:01;;;;;;;14.82;7.75;;;3.20;99.90;;;;;;5073326;28;20253;-69
2022/01/31 04:09:27;;;;;;;21.00;7.57;;;3.20;99.90;;;;;;5072722;28;20204;-71
2022/01/31 04:11:54;;;;;;;18.13;6.57;;;3.30;99.90;;;;;;5073103;28;20204;-70
2022/01/31 04:14:25;;;;;;;20.73;7.55;;;3.30;99.90;;;;;;5073595;28;20210;-70
2022/01/31 04:16:53;;;;;;;21.42;8.38;;;3.30;99.90;;;;;;5073368;28;20220;-71
2022/01/31 04:19:21;;;;;;;14.73;7.60;;;3.30;99.90;;;;;;5073231;28;20200;-70
2022/01/31 04:21:47;;;;;;;9.48;6.80;;;3.30;99.90;;;;;;5073931;28;20200;-70
2022/01/31 04:24:23;;;;;;;10.55;6.95;;;3.30;99.90;;;;;;5072242;28;20655;-70
2022/01/31 04:26:59;;;;;;;10.95;7.00;;;3.30;99.90;;;;;;5073472;28;20210;-70
2022/01/31 04:29:31;;;;;;;14.15;6.38;;;3.30;99.90;;;;;;5074593;28;20229;-70
2022/01/31 04:31:58;;;;;;;10.85;7.68;;;3.30;99.90;;;;;;5077392;28;20729;-70
2022/01/31 04:34:25;;;;;;;16.05;7.05;;;3.30;99.90;;;;;;5077144;28;20207;-71
2022/01/31 04:36:51;;;;;;;18.25;7.40;;;3.30;99.90;;;;;;5076816;28;20277;-70
2022/01/31 04:39:19;;;;;;;20.17;7.15;;;3.30;99.90;;;;;;5077022;28;20231;-70
2022/01/31 04:41:47;;;;;;;14.80;6.45;;;3.30;99.90;;;;;;5076459;28;20199;-70
2022/01/31 04:44:14;;;;;;;17.58;7.43;;;3.30;99.90;;;;;;5077016;28;20200;-70
2022/01/31 04:46:41;;;;;;;15.18;7.95;;;3.30;99.90;;;;;;5077373;28;20249;-70
2022/01/31 04:49:08;;;;;;;16.63;8.00;;;3.30;99.90;;;;;;5076837;28;20196;-71
2022/01/31 04:51:34;;;;;;;17.17;8.90;;;3.30;99.90;;;;;;5077452;28;20196;-71
2022/01/31 04:54:01;;;;;;;10.30;5.63;;;3.40;99.90;;;;;;5076978;28;20228;-70
2022/01/31 04:56:27;;;;;;;9.10;5.47;;;3.50;99.90;;;;;;5076851;28;20206;-70
2022/01/31 04:58:54;;;;;;;15.13;6.22;;;3.50;99.90;;;;;;5077396;28;20626;-70
2022/01/31 05:01:20;;;;;;;8.48;5.57;;;3.50;99.90;;;;;;5077394;28;20208;-68
2022/01/31 05:03:47;;;;;;;12.45;5.47;;;3.50;99.90;;;;;;5077978;28;20613;-69
2022/01/31 05:06:17;;;;;;;14.32;6.40;;;3.60;99.90;;;;;;5078632;28;20227;-69
2022/01/31 05:08:44;;;;;;;10.50;5.65;;;3.50;99.90;;;;;;5079423;28;20259;-70
2022/01/31 05:11:12;;;;;;;13.25;5.57;;;3.50;99.90;;;;;;5079422;28;20257;-69
2022/01/31 05:13:38;;;;;;;18.00;5.05;;;3.60;99.90;;;;;;5078557;28;20196;-69
2022/01/31 05:16:05;;;;;;;7.45;4.82;;;3.50;99.90;;;;;;5079481;28;20286;-69
2022/01/31 05:18:33;;;;;;;16.35;5.72;;;3.60;99.90;;;;;;5080097;28;20224;-69
2022/01/31 05:20:59;;;;;;;16.60;5.22;;;3.60;99.90;;;;;;5081215;28;20200;-69
2022/01/31 05:23:26;;;;;;;8.00;5.15;;;3.60;99.90;;;;;;5081746;28;20200;-69
2022/01/31 05:25:56;;;;;;;10.52;5.60;;;3.60;99.90;;;;;;5081976;28;20223;-69
2022/01/31 05:28:25;;;;;;;11.55;5.00;;;3.60;99.90;;;;;;5083294;28;20345;-69
2022/01/31 05:30:51;;;;;;;10.65;5.30;;;3.60;99.90;;;;;;5082332;28;20200;-69
2022/01/31 05:33:19;;;;;;;16.40;6.00;;;3.50;99.90;;;;;;5081326;28;20207;-68
2022/01/31 05:35:45;;;;;;;9.98;5.60;;;3.50;99.90;;;;;;5082323;28;20203;-69
2022/01/31 05:38:12;;;;;;;15.32;5.75;;;3.50;99.90;;;;;;5079578;28;20632;-69
2022/01/31 05:40:40;;;;;;;12.35;6.78;;;3.50;99.90;;;;;;5080871;28;20204;-70
2022/01/31 05:43:06;;;;;;;18.77;5.82;;;3.50;99.90;;;;;;5081827;28;20263;-69
2022/01/31 05:45:33;;;;;;;11.18;5.78;;;3.40;99.90;;;;;;5081690;28;20207;-69
2022/01/31 05:47:59;;;;;;;12.35;6.03;;;3.40;99.90;;;;;;5082770;28;20715;-69
2022/01/31 05:50:26;;;;;;;16.08;6.18;;;3.30;99.90;;;;;;5083405;28;20204;-69
2022/01/31 05:52:52;;;;;;;15.98;7.40;;;3.30;99.90;;;;;;5077763;28;20228;-69
2022/01/31 05:55:19;;;;;;;16.80;5.85;;;3.30;99.90;;;;;;5082740;28;20609;-69
2022/01/31 05:57:46;;;;;;;19.08;7.07;;;3.30;99.90;;;;;;5081903;28;20220;-69
2022/01/31 06:00:13;;;;;;;15.00;6.95;;;3.30;99.90;;;;;;5081517;28;20256;-69
2022/01/31 06:02:39;;;;;;;17.15;7.40;;;3.40;99.90;;;;;;5083126;28;20278;-69
2022/01/31 06:05:06;;;;;;;11.82;6.13;;;3.40;99.90;;;;;;5081200;28;20279;-69
2022/01/31 06:07:33;;;;;;;19.67;6.65;;;3.40;99.90;;;;;;5080039;28;20287;-69
2022/01/31 06:10:00;;;;;;;18.73;7.20;;;3.30;99.90;;;;;;5062356;28;20223;-69
2022/01/31 06:12:27;;;;;;;15.85;6.55;;;3.30;99.90;;;;;;5080569;28;20294;-69
2022/01/31 06:14:56;;;;;;;13.10;6.85;;;3.30;99.90;;;;;;5080555;28;20200;-69
2022/01/31 06:17:23;;;;;;;13.23;6.40;;;3.30;99.90;;;;;;5080096;28;20298;-70
2022/01/31 06:19:49;;;;;;;20.02;8.75;;;3.30;99.90;;;;;;5078679;28;20203;-70
2022/01/31 06:22:16;;;;;;;22.80;6.70;;;3.30;99.90;;;;;;5079907;28;20200;-71
2022/01/31 06:24:42;;;;;;;22.48;10.88;;;3.30;99.90;;;;;;5078278;28;20207;-70
2022/01/31 06:27:09;;;;;;;20.58;7.28;;;3.40;99.90;;;;;;5079130;28;20290;-70
2022/01/31 06:29:35;;;;;;;16.75;7.38;;;3.30;99.90;;;;;;5078873;28;20337;-70
2022/01/31 06:32:03;;;;;;;24.85;8.00;;;3.40;99.90;;;;;;5078061;28;20283;-70
2022/01/31 06:34:29;;;;;;;16.75;6.50;;;3.40;99.90;;;;;;5078346;28;20743;-71
2022/01/31 06:36:57;;;;;;;17.90;8.17;;;3.40;99.90;;;;;;5076320;28;20212;-70
2022/01/31 06:39:23;;;;;;;18.65;7.50;;;3.40;99.90;;;;;;5074841;28;20261;-70
2022/01/31 06:41:50;;;;;;;19.23;6.97;;;3.50;99.90;;;;;;5076065;28;20211;-70
2022/01/31 06:44:16;;;;;;;17.35;6.28;;;3.50;99.90;;;;;;5075489;28;20629;-70
2022/01/31 06:46:43;;;;;;;14.85;4.82;;;3.70;99.90;;;;;;5075504;28;20203;-70
2022/01/31 06:49:09;;;;;;;11.48;4.88;;;3.80;99.90;;;;;;5079650;28;20263;-70
2022/01/31 06:51:35;;;;;;;9.85;5.13;;;3.90;99.90;;;;;;5079577;28;20226;-70
2022/01/31 06:54:02;;;;;;;6.95;4.32;;;4.00;99.90;;;;;;5078465;28;20318;-70
2022/01/31 06:56:30;;;;;;;8.88;6.13;;;4.00;99.90;;;;;;5077994;28;20195;-70
2022/01/31 06:58:58;;;;;;;5.38;4.22;;;4.10;99.90;;;;;;5079551;28;20632;-71
2022/01/31 07:01:25;;;;;;;4.93;2.90;;;4.10;99.90;;;;;;5077101;28;20253;-71
2022/01/31 07:03:53;;;;;;;9.82;3.90;;;4.10;99.90;;;;;;5076824;28;20192;-70
2022/01/31 07:06:21;;;;;;;6.35;3.70;;;4.10;99.90;;;;;;5079184;28;20690;-69
2022/01/31 07:08:48;;;;;;;7.75;3.70;;;4.00;99.90;;;;;;5079859;28;20628;-70
2022/01/31 07:11:21;;;;;;;5.43;3.20;;;4.10;99.90;;;;;;5079968;28;20290;-70
2022/01/31 07:13:49;;;;;;;6.07;4.07;;;4.00;99.90;;;;;;5075674;28;20329;-71
2022/01/31 07:16:16;;;;;;;3.90;2.55;;;4.00;99.90;;;;;;5074578;28;20204;-69
2022/01/31 07:18:43;;;;;;;6.05;3.03;;;4.00;99.90;;;;;;5075137;28;20756;-70
2022/01/31 07:21:13;;;;;;;3.53;2.60;;;4.00;99.90;;;;;;5077327;28;20655;-70
2022/01/31 07:24:03;;;;;;;8.77;3.10;;;4.00;99.90;;;;;;5078036;28;20616;-71
2022/01/31 07:26:29;;;;;;;2.47;2.20;;;4.00;99.90;;;;;;5074125;28;20208;-72
2022/01/31 07:28:56;;;;;;;5.10;3.00;;;4.00;99.90;;;;;;5074465;28;20261;-72
2022/01/31 07:31:22;;;;;;;4.07;3.10;;;4.00;99.90;;;;;;5074736;28;20207;-72
2022/01/31 07:33:49;;;;;;;3.13;2.80;;;4.00;99.90;;;;;;5074741;28;20207;-72
2022/01/31 07:36:18;;;;;;;4.82;2.92;;;4.00;99.90;;;;;;5075128;28;21273;-72
2022/01/31 07:38:44;;;;;;;2.47;2.20;;;4.00;99.90;;;;;;5075095;28;20284;-71
2022/01/31 07:41:14;;;;;;;3.65;2.83;;;4.00;99.90;;;;;;5074581;28;20197;-71
2022/01/31 07:43:45;;;;;;;5.53;2.97;;;4.00;99.90;;;;;;5075568;28;20180;-72
2022/01/31 07:46:14;;;;;;;4.13;3.70;;;4.00;99.90;;;;;;5073671;28;20686;-71
2022/01/31 07:48:42;;;;;;;3.08;2.88;;;4.10;99.90;;;;;;5073844;28;20203;-71
2022/01/31 07:51:09;;;;;;;3.63;2.47;;;4.10;99.90;;;;;;5074091;28;20207;-70
2022/01/31 07:53:39;;;;;;;4.63;2.40;;;4.10;99.90;;;;;;5074360;28;20285;-71
2022/01/31 07:56:09;;;;;;;4.18;2.13;;;4.10;99.90;;;;;;5074692;28;20582;-71
2022/01/31 07:58:37;;;;;;;4.78;4.38;;;4.10;99.90;;;;;;5074151;28;20231;-70
2022/01/31 08:01:04;;;;;;;3.95;3.65;;;4.20;99.90;;;;;;5074644;28;20200;-70
2022/01/31 08:03:32;;;;;;;3.25;2.60;;;4.20;99.90;;;;;;5072724;28;20200;-71
2022/01/31 08:05:58;;;;;;;2.95;2.10;;;4.20;99.90;;;;;;5076550;28;20294;-71
2022/01/31 08:08:29;;;;;;;7.00;4.65;;;4.30;99.90;;;;;;5076893;28;20210;-70
2022/01/31 08:10:57;;;;;;;7.60;3.95;;;4.30;99.90;;;;;;5078190;28;20203;-71
2022/01/31 08:13:25;;;;;;;6.07;5.45;;;4.40;99.90;;;;;;5078059;28;20203;-71
2022/01/31 08:18:39;;;;;;;4.88;4.30;;;4.40;99.90;;;;;;5077705;28;20215;-71
2022/01/31 08:21:10;;;;;;;5.25;3.70;;;4.50;99.90;;;;;;5076747;28;21369;-70
2022/01/31 08:23:37;;;;;;;6.68;5.70;;;4.60;99.90;;;;;;5077427;28;20210;-71
2022/01/31 08:26:07;;;;;;;5.40;4.78;;;4.60;99.90;;;;;;5077262;28;20253;-71
2022/01/31 08:28:38;;;;;;;3.33;2.72;;;4.60;99.90;;;;;;5077381;28;20196;-71
2022/01/31 08:31:18;;;;;;;6.75;5.35;;;4.70;99.90;;;;;;5076815;28;20571;-71
2022/01/31 08:34:02;;;;;;;12.73;8.20;;;4.70;99.90;;;;;;5077273;28;20195;-70
2022/01/31 08:36:34;;;;;;;8.38;6.50;;;4.80;99.90;;;;;;5077815;28;20191;-70
2022/01/31 08:39:21;;;;;;;7.70;6.20;;;4.90;99.90;;;;;;5077519;28;20687;-70
2022/01/31 08:41:51;;;;;;;10.88;6.95;;;5.00;99.90;;;;;;5077266;28;20660;-70
2022/01/31 08:44:22;;;;;;;6.85;4.93;;;5.00;99.90;;;;;;5076898;28;20184;-70
2022/01/31 08:46:49;;;;;;;3.83;3.45;;;5.00;99.90;;;;;;5076810;28;20196;-70
2022/01/31 08:49:15;;;;;;;3.70;3.10;;;5.00;99.90;;;;;;5076682;28;20215;-70
2022/01/31 08:51:43;;;;;;;4.53;3.13;;;5.10;99.90;;;;;;5077033;28;20200;-70
2022/01/31 08:54:11;;;;;;;2.60;2.35;;;5.10;99.90;;;;;;5076902;28;20227;-69
2022/01/31 08:56:44;;;;;;;4.75;3.10;;;5.10;99.90;;;;;;5075801;28;20804;-70
2022/01/31 08:59:18;;;;;;;2.95;2.75;;;5.20;99.90;;;;;;5078414;28;20745;-69
2022/01/31 09:01:52;;;;;;;6.20;2.25;;;5.20;99.90;;;;;;5078189;28;20203;-70
2022/01/31 09:04:33;;;;;;;2.92;1.80;;;5.30;99.90;;;;;;5078173;28;20207;-70
2022/01/31 09:07:01;;;;;;;2.67;1.88;;;5.30;99.90;;;;;;5077882;28;20608;-69
2022/01/31 09:09:29;;;;;;;2.65;2.45;;;5.30;99.90;;;;;;5076431;28;20204;-69
2022/01/31 09:11:57;;;;;;;3.90;2.13;;;5.30;99.90;;;;;;5077189;28;20211;-70
2022/01/31 09:14:25;;;;;;;2.55;2.00;;;5.30;99.90;;;;;;5080778;28;20300;-70
2022/01/31 09:16:52;;;;;;;2.65;1.88;;;5.40;99.90;;;;;;5076715;28;20196;-70
2022/01/31 09:19:18;;;;;;;8.73;2.40;;;5.40;99.90;;;;;;5076393;28;20211;-69
2022/01/31 09:21:45;;;;;;;5.53;1.73;;;5.40;99.90;;;;;;5077131;28;20720;-69
2022/01/31 09:24:12;;;;;;;5.75;2.30;;;5.40;99.90;;;;;;5076277;28;20196;-69
2022/01/31 09:26:41;;;;;;;3.80;2.97;;;5.40;99.90;;;;;;5076991;28;20219;-69
2022/01/31 09:29:08;;;;;;;4.28;3.15;;;5.40;99.90;;;;;;5076906;28;20705;-70
2022/01/31 09:31:34;;;;;;;3.40;1.80;;;5.50;99.90;;;;;;5076987;28;20257;-70
2022/01/31 09:34:01;;;;;;;2.10;1.90;;;5.60;99.90;;;;;;5077032;28;20305;-70
2022/01/31 09:36:27;;;;;;;3.55;2.53;;;5.60;99.90;;;;;;5077381;28;20569;-70
2022/01/31 09:38:54;;;;;;;2.30;1.83;;;5.60;99.90;;;;;;5077130;28;20216;-70
2022/01/31 09:41:23;;;;;;;4.00;2.20;;;5.70;99.90;;;;;;5075825;28;20546;-70
2022/01/31 09:44:04;;;;;;;3.92;1.90;;;5.80;99.90;;;;;;5077081;28;20678;-70
2022/01/31 09:46:45;;;;;;;5.60;2.20;;;5.80;99.90;;;;;;5076740;28;20203;-70
2022/01/31 09:49:12;;;;;;;9.98;3.35;;;5.80;99.90;;;;;;5077262;28;20188;-70
2022/01/31 09:51:39;;;;;;;6.40;2.15;;;5.80;99.90;;;;;;5076711;28;20233;-70
2022/01/31 09:54:06;;;;;;;2.45;1.75;;;5.80;99.90;;;;;;5075717;28;20738;-70
2022/01/31 09:56:37;;;;;;;6.72;2.20;;;5.90;99.90;;;;;;5076572;28;20257;-70
2022/01/31 09:59:06;;;;;;;4.50;2.75;;;5.90;99.90;;;;;;5075666;28;20265;-69
2022/01/31 10:01:41;;;;;;;8.35;2.53;;;5.90;99.90;;;;;;5075895;28;20207;-70
2022/01/31 10:04:20;;;;;;;2.40;1.98;;;6.00;99.90;;;;;;5075559;28;20215;-70
2022/01/31 10:06:54;;;;;;;3.25;1.67;;;6.00;99.90;;;;;;5075674;28;20223;-70
2022/01/31 10:09:26;;;;;;;3.28;2.30;;;6.00;99.90;;;;;;5077238;28;20202;-71
2022/01/31 10:12:07;;;;;;;2.75;2.40;;;6.00;99.90;;;;;;5075376;28;20554;-71
2022/01/31 10:17:28;;;;;;;6.05;2.42;;;6.10;99.90;;;;;;5075725;28;20214;-71
2022/01/31 10:20:00;;;;;;;2.25;1.88;;;6.10;99.90;;;;;;5073688;28;20635;-71
2022/01/31 10:22:30;;;;;;;6.50;2.13;;;6.20;99.90;;;;;;5075916;28;20547;-71
2022/01/31 10:24:58;;;;;;;3.67;1.90;;;6.20;99.90;;;;;;5076236;28;20726;-71
2022/01/31 10:27:29;;;;;;;3.70;1.98;;;6.10;99.90;;;;;;5075197;28;20208;-71
2022/01/31 10:30:07;;;;;;;5.10;2.10;;;6.20;99.90;;;;;;5075784;28;20219;-70
2022/01/31 10:32:36;;;;;;;3.47;2.15;;;6.20;99.90;;;;;;5076332;28;20192;-70
2022/01/31 10:35:06;;;;;;;2.80;2.30;;;6.20;99.90;;;;;;5075528;28;20206;-70
2022/01/31 10:37:38;;;;;;;4.72;2.30;;;6.20;99.90;;;;;;5076398;28;20200;-70
2022/01/31 10:54:14;;;;;;;2.00;1.70;;;6.40;99.90;;;;;;5074071;28;20232;-71
2022/01/31 10:56:47;;;;;;;3.33;1.95;;;6.40;99.90;;;;;;5074233;28;20210;-71
2022/01/31 10:59:18;;;;;;;2.20;1.63;;;6.40;99.90;;;;;;5074022;28;20208;-71
2022/01/31 11:01:49;;;;;;;4.50;1.90;;;6.40;99.90;;;;;;5074716;28;20545;-70
2022/01/31 13:01:30;;;;;;;4.63;1.40;;;7.00;99.90;;;;;;5091211;27;21072;-72
2022/01/31 13:04:07;;;;;;;6.35;2.08;;;7.00;99.90;;;;;;5090895;28;20655;-72
2022/01/31 13:06:38;;;;;;;4.82;1.88;;;7.00;99.90;;;;;;5090168;28;20230;-72
2022/01/31 13:09:30;;;;;;;5.28;2.08;;;7.00;99.90;;;;;;5091375;28;20180;-71
2022/01/31 13:12:04;;;;;;;6.00;1.90;;;7.00;99.90;;;;;;5089928;28;20199;-71
2022/01/31 13:14:40;;;;;;;2.30;1.60;;;7.00;99.90;;;;;;5090881;28;20203;-72
2022/01/31 13:17:17;;;;;;;2.58;1.40;;;7.10;99.90;;;;;;5090810;28;20187;-71
2022/01/31 13:19:56;;;;;;;3.05;1.50;;;7.20;99.90;;;;;;5090778;28;20219;-70
2022/01/31 13:22:41;;;;;;;4.32;1.48;;;7.60;99.90;;;;;;5091426;28;20207;-71
2022/01/31 13:25:13;;;;;;;3.15;1.85;;;8.00;99.90;;;;;;5090085;28;20209;-71
2022/01/31 13:27:43;;;;;;;2.50;1.50;;;7.80;99.90;;;;;;5090400;28;20249;-71
2022/01/31 13:30:17;;;;;;;4.75;1.52;;;7.80;99.90;;;;;;5090782;28;20203;-71
2022/01/31 13:32:44;;;;;;;9.65;2.50;;;8.20;99.90;;;;;;5092435;28;20192;-70
2022/01/31 13:35:21;;;;;;;4.60;1.45;;;8.90;99.90;;;;;;5090611;28;20211;-71
2022/01/31 13:37:54;;;;;;;3.50;1.80;;;8.50;99.90;;;;;;5095709;28;20264;-71
2022/01/31 13:40:36;;;;;;;9.68;2.58;;;8.40;99.90;;;;;;5095516;28;20683;-72
2022/01/31 13:43:08;;;;;;;4.22;2.00;;;8.50;99.90;;;;;;5096717;28;20183;-72
2022/01/31 13:45:47;;;;;;;2.42;1.33;;;8.10;99.90;;;;;;5098118;28;20195;-71
2022/01/31 13:48:36;;;;;;;7.35;2.30;;;8.30;99.90;;;;;;5099434;28;20195;-71
2022/01/31 13:51:05;;;;;;;5.68;1.95;;;7.90;99.90;;;;;;5099031;28;20203;-71
2022/01/31 13:53:35;;;;;;;5.00;2.00;;;7.90;99.90;;;;;;5099568;28;20199;-72
2022/01/31 13:56:04;;;;;;;3.85;1.65;;;7.80;99.90;;;;;;5099422;28;20225;-72
2022/01/31 13:58:33;;;;;;;4.13;1.85;;;7.70;99.90;;;;;;5099295;28;20210;-72
2022/01/31 14:01:00;;;;;;;2.33;1.40;;;7.50;99.90;;;;;;5095421;28;20624;-72
2022/01/31 14:03:28;;;;;;;1.83;1.55;;;7.30;99.90;;;;;;5097226;28;20278;-72
2022/01/31 14:06:03;;;;;;;3.55;1.70;;;7.10;99.90;;;;;;5093125;28;20231;-72
2022/01/31 14:08:36;;;;;;;3.65;1.48;;;6.90;99.90;;;;;;5096926;28;20246;-72
2022/01/31 14:11:13;;;;;;;2.13;1.35;;;6.80;99.90;;;;;;5092420;28;20200;-71
2022/01/31 14:13:52;;;;;;;5.13;1.63;;;6.80;99.90;;;;;;5077735;28;20200;-71
2022/01/31 14:16:25;;;;;;;5.93;1.73;;;6.70;99.90;;;;;;5077243;28;20188;-72
2022/01/31 14:18:54;;;;;;;2.60;1.75;;;6.60;99.90;;;;;;5077263;28;20196;-71
2022/01/31 14:21:24;;;;;;;4.88;2.28;;;6.60;99.90;;;;;;5078122;28;20220;-71
2022/01/31 14:23:52;;;;;;;7.30;3.22;;;6.60;99.90;;;;;;5078871;28;20207;-72
2022/01/31 14:26:40;;;;;;;2.60;1.75;;;6.70;99.90;;;;;;5079967;28;20199;-72
2022/01/31 14:29:10;;;;;;;4.07;1.70;;;6.70;99.90;;;;;;5082759;28;20267;-72
2022/01/31 14:31:42;;;;;;;8.07;2.10;;;6.80;99.90;;;;;;5081626;28;20317;-71
2022/01/31 14:34:12;;;;;;;3.53;1.60;;;6.80;99.90;;;;;;5078961;28;20214;-71
2022/01/31 14:36:40;;;;;;;2.90;1.60;;;6.80;99.90;;;;;;5079535;28;20529;-71
2022/01/31 14:49:40;;;;;;;7.03;2.00;;;6.70;99.90;;;;;;5082356;28;20199;-71
2022/01/31 14:52:08;;;;;;;4.90;1.67;;;6.70;99.90;;;;;;5083332;28;20230;-74
2022/01/31 14:54:38;;;;;;;3.15;1.35;;;6.70;99.90;;;;;;5082253;28;20200;-72
2022/01/31 14:57:06;;;;;;;9.80;1.52;;;6.70;99.90;;;;;;5083659;28;20206;-72
2022/01/31 14:59:32;;;;;;;4.05;1.38;;;6.60;99.90;;;;;;5081619;28;20228;-72
2022/01/31 15:01:59;;;;;;;4.70;2.30;;;6.60;99.90;;;;;;5083353;28;20698;-71
2022/01/31 15:04:26;;;;;;;5.35;2.33;;;6.50;99.90;;;;;;5083285;28;20203;-71
2022/01/31 15:06:53;;;;;;;6.30;1.92;;;6.40;99.90;;;;;;5083188;28;20302;-71
2022/01/31 15:09:19;;;;;;;3.15;1.40;;;6.40;99.90;;;;;;5085388;28;20196;-72
2022/01/31 15:11:46;;;;;;;2.97;2.17;;;6.30;99.90;;;;;;5085282;28;20282;-71
2022/01/31 15:14:15;;;;;;;6.28;2.17;;;6.30;99.90;;;;;;5084951;28;20259;-71
2022/01/31 15:16:43;;;;;;;4.97;1.90;;;6.20;99.90;;;;;;5085171;28;20207;-71
2022/01/31 15:19:10;;;;;;;7.03;2.25;;;6.20;99.90;;;;;;5084445;28;20196;-72
2022/01/31 15:21:37;;;;;;;2.80;1.48;;;6.20;99.90;;;;;;5083277;28;20216;-72
2022/01/31 15:24:06;;;;;;;6.82;2.20;;;6.10;99.90;;;;;;5083239;28;20251;-71
2022/01/31 15:26:34;;;;;;;5.38;2.65;;;6.00;99.90;;;;;;5083206;28;20264;-72
2022/01/31 15:29:02;;;;;;;5.40;2.00;;;6.00;99.90;;;;;;5082849;28;20200;-72
2022/01/31 15:31:28;;;;;;;4.68;2.15;;;5.90;99.90;;;;;;5079483;28;20242;-72